sensor_id;sensor_type;location;lat;lon;timestamp;temperature;humidity
16491;DHT22;8356;51.214;3.270;2024-01-30T00:01:25;308.10;2304.00
16491;DHT22;8356;51.214;3.270;2024-01-30T00:03:51;308.10;2304.00
16491;DHT22;8356;51.214;3.270;2024-01-30T00:06:20;308.00;2304.00
16491;DHT22;8356;51.214;3.270;2024-01-30T00:08:49;308.00;2304.00
16491;DHT22;8356;51.214;3.270;2024-01-30T00:11:16;308.10;2304.00
16491;DHT22;8356;51.214;3.270;2024-01-30T00:13:41;308.10;2304.00
16491;DHT22;8356;51.214;3.270;2024-01-30T00:16:08;308.00;2304.00
16491;DHT22;8356;51.214;3.270;2024-01-30T00:18:35;308.00;2304.00
16491;DHT22;8356;51.214;3.270;2024-01-30T00:21:01;308.00;2304.00
16491;DHT22;8356;51.214;3.270;2024-01-30T00:23:26;307.90;2304.00
16491;DHT22;8356;51.214;3.270;2024-01-30T00:25:53;307.90;2304.00
16491;DHT22;8356;51.214;3.270;2024-01-30T00:28:19;307.90;2304.00
16491;DHT22;8356;51.214;3.270;2024-01-30T00:30:44;307.90;2304.00
16491;DHT22;8356;51.214;3.270;2024-01-30T00:33:10;307.90;2304.00
16491;DHT22;8356;51.214;3.270;2024-01-30T00:35:36;307.90;2304.00
16491;DHT22;8356;51.214;3.270;2024-01-30T00:38:01;308.00;2304.00
16491;DHT22;8356;51.214;3.270;2024-01-30T00:40:27;308.00;2304.00
16491;DHT22;8356;51.214;3.270;2024-01-30T00:42:53;308.00;2304.00
16491;DHT22;8356;51.214;3.270;2024-01-30T00:45:18;308.00;2304.00
16491;DHT22;8356;51.214;3.270;2024-01-30T00:47:44;308.00;2304.00
16491;DHT22;8356;51.214;3.270;2024-01-30T00:50:11;308.00;2304.00
16491;DHT22;8356;51.214;3.270;2024-01-30T00:52:37;308.00;2304.00
16491;DHT22;8356;51.214;3.270;2024-01-30T00:55:04;308.10;2304.00
16491;DHT22;8356;51.214;3.270;2024-01-30T00:57:30;308.00;2304.00
16491;DHT22;8356;51.214;3.270;2024-01-30T00:59:56;308.10;2304.00
16491;DHT22;8356;51.214;3.270;2024-01-30T01:02:22;308.10;2304.00
16491;DHT22;8356;51.214;3.270;2024-01-30T01:04:48;308.00;2304.00
16491;DHT22;8356;51.214;3.270;2024-01-30T01:07:13;308.00;2304.00
16491;DHT22;8356;51.214;3.270;2024-01-30T01:09:39;308.00;2304.00
16491;DHT22;8356;51.214;3.270;2024-01-30T01:12:05;307.90;2304.00
16491;DHT22;8356;51.214;3.270;2024-01-30T01:14:31;307.90;2304.00
16491;DHT22;8356;51.214;3.270;2024-01-30T01:16:56;308.10;2304.00
16491;DHT22;8356;51.214;3.270;2024-01-30T01:19:22;308.00;2304.00
16491;DHT22;8356;51.214;3.270;2024-01-30T01:21:48;308.00;2304.00
16491;DHT22;8356;51.214;3.270;2024-01-30T01:24:14;307.90;2304.00
16491;DHT22;8356;51.214;3.270;2024-01-30T01:26:39;307.90;2304.00
16491;DHT22;8356;51.214;3.270;2024-01-30T01:29:06;307.90;2304.00
16491;DHT22;8356;51.214;3.270;2024-01-30T01:31:37;307.80;2304.00
16491;DHT22;8356;51.214;3.270;2024-01-30T01:34:09;307.90;2304.00
16491;DHT22;8356;51.214;3.270;2024-01-30T01:36:35;307.90;2304.00
16491;DHT22;8356;51.214;3.270;2024-01-30T01:39:01;307.90;2304.00
16491;DHT22;8356;51.214;3.270;2024-01-30T01:41:30;307.90;2304.00
16491;DHT22;8356;51.214;3.270;2024-01-30T01:43:56;307.90;2304.00
16491;DHT22;8356;51.214;3.270;2024-01-30T01:46:22;307.90;2304.00
16491;DHT22;8356;51.214;3.270;2024-01-30T01:48:48;307.90;2304.00
16491;DHT22;8356;51.214;3.270;2024-01-30T01:51:14;307.90;2304.00
16491;DHT22;8356;51.214;3.270;2024-01-30T01:53:40;307.80;2304.00
16491;DHT22;8356;51.214;3.270;2024-01-30T01:56:06;307.80;2304.00
16491;DHT22;8356;51.214;3.270;2024-01-30T01:58:32;307.80;2304.00
16491;DHT22;8356;51.214;3.270;2024-01-30T02:00:59;307.80;2304.00
16491;DHT22;8356;51.214;3.270;2024-01-30T02:03:24;307.80;2304.00
16491;DHT22;8356;51.214;3.270;2024-01-30T02:05:54;307.80;2304.00
16491;DHT22;8356;51.214;3.270;2024-01-30T02:08:20;307.90;2304.00
16491;DHT22;8356;51.214;3.270;2024-01-30T02:10:45;307.90;2304.00
16491;DHT22;8356;51.214;3.270;2024-01-30T02:13:11;307.80;2304.00
16491;DHT22;8356;51.214;3.270;2024-01-30T02:15:37;307.80;2304.00
16491;DHT22;8356;51.214;3.270;2024-01-30T02:18:02;307.80;2304.00
16491;DHT22;8356;51.214;3.270;2024-01-30T02:20:30;307.80;2304.00
16491;DHT22;8356;51.214;3.270;2024-01-30T02:22:58;307.70;2304.00
16491;DHT22;8356;51.214;3.270;2024-01-30T02:25:38;307.80;2304.00
16491;DHT22;8356;51.214;3.270;2024-01-30T02:28:04;307.80;2304.00
16491;DHT22;8356;51.214;3.270;2024-01-30T02:30:29;307.80;2304.00
16491;DHT22;8356;51.214;3.270;2024-01-30T02:32:55;307.80;2304.00
16491;DHT22;8356;51.214;3.270;2024-01-30T02:35:21;307.80;2304.00
16491;DHT22;8356;51.214;3.270;2024-01-30T02:37:46;307.80;2304.00
16491;DHT22;8356;51.214;3.270;2024-01-30T02:40:12;307.80;2304.00
16491;DHT22;8356;51.214;3.270;2024-01-30T02:42:38;307.90;2304.00
16491;DHT22;8356;51.214;3.270;2024-01-30T02:45:04;307.80;2304.00
16491;DHT22;8356;51.214;3.270;2024-01-30T02:47:30;307.90;2304.00
16491;DHT22;8356;51.214;3.270;2024-01-30T02:49:56;307.80;2304.00
16491;DHT22;8356;51.214;3.270;2024-01-30T02:52:21;307.80;2304.00
16491;DHT22;8356;51.214;3.270;2024-01-30T02:54:47;307.80;2304.00
16491;DHT22;8356;51.214;3.270;2024-01-30T02:57:13;307.80;2304.00
16491;DHT22;8356;51.214;3.270;2024-01-30T02:59:38;307.90;2304.00
16491;DHT22;8356;51.214;3.270;2024-01-30T03:02:04;307.80;2304.00
16491;DHT22;8356;51.214;3.270;2024-01-30T03:04:29;307.80;2304.00
16491;DHT22;8356;51.214;3.270;2024-01-30T03:06:55;307.80;2304.00
16491;DHT22;8356;51.214;3.270;2024-01-30T03:09:21;307.70;2304.00
16491;DHT22;8356;51.214;3.270;2024-01-30T03:11:46;307.70;2304.00
16491;DHT22;8356;51.214;3.270;2024-01-30T03:14:12;307.70;2304.00
16491;DHT22;8356;51.214;3.270;2024-01-30T03:16:38;307.70;2304.00
16491;DHT22;8356;51.214;3.270;2024-01-30T03:19:05;307.70;2304.00
16491;DHT22;8356;51.214;3.270;2024-01-30T03:21:33;307.60;2304.00
16491;DHT22;8356;51.214;3.270;2024-01-30T03:23:58;307.60;2304.00
16491;DHT22;8356;51.214;3.270;2024-01-30T03:26:24;307.50;2304.00
16491;DHT22;8356;51.214;3.270;2024-01-30T03:28:50;307.50;2304.00
16491;DHT22;8356;51.214;3.270;2024-01-30T03:31:16;307.60;2304.00
16491;DHT22;8356;51.214;3.270;2024-01-30T03:33:41;307.60;2304.00
16491;DHT22;8356;51.214;3.270;2024-01-30T03:36:08;307.60;2304.00
16491;DHT22;8356;51.214;3.270;2024-01-30T03:38:34;307.60;2304.00
16491;DHT22;8356;51.214;3.270;2024-01-30T03:41:00;307.50;2304.00
16491;DHT22;8356;51.214;3.270;2024-01-30T03:43:26;307.60;2304.00
16491;DHT22;8356;51.214;3.270;2024-01-30T03:45:51;307.60;2304.00
16491;DHT22;8356;51.214;3.270;2024-01-30T03:48:17;307.60;2304.00
16491;DHT22;8356;51.214;3.270;2024-01-30T03:50:43;307.60;2304.00
16491;DHT22;8356;51.214;3.270;2024-01-30T03:53:09;307.50;2304.00
16491;DHT22;8356;51.214;3.270;2024-01-30T03:55:34;307.50;2304.00
16491;DHT22;8356;51.214;3.270;2024-01-30T03:58:00;307.50;2304.00
16491;DHT22;8356;51.214;3.270;2024-01-30T04:00:26;307.50;2304.00
16491;DHT22;8356;51.214;3.270;2024-01-30T04:02:52;307.50;2304.00
16491;DHT22;8356;51.214;3.270;2024-01-30T04:05:17;307.50;2304.00
16491;DHT22;8356;51.214;3.270;2024-01-30T04:07:43;307.40;2304.00
16491;DHT22;8356;51.214;3.270;2024-01-30T04:10:09;307.50;2304.00
16491;DHT22;8356;51.214;3.270;2024-01-30T04:12:35;307.50;2304.00
16491;DHT22;8356;51.214;3.270;2024-01-30T04:15:01;307.60;2304.00
16491;DHT22;8356;51.214;3.270;2024-01-30T04:17:28;307.60;2304.00
16491;DHT22;8356;51.214;3.270;2024-01-30T04:19:54;307.60;2304.00
16491;DHT22;8356;51.214;3.270;2024-01-30T04:22:20;307.60;2304.00
16491;DHT22;8356;51.214;3.270;2024-01-30T04:24:46;307.60;2304.00
16491;DHT22;8356;51.214;3.270;2024-01-30T04:27:12;307.60;2304.00
16491;DHT22;8356;51.214;3.270;2024-01-30T04:29:37;307.60;2304.00
16491;DHT22;8356;51.214;3.270;2024-01-30T04:32:03;307.60;2304.00
16491;DHT22;8356;51.214;3.270;2024-01-30T04:34:29;307.60;2304.00
16491;DHT22;8356;51.214;3.270;2024-01-30T04:36:55;307.60;2304.00
16491;DHT22;8356;51.214;3.270;2024-01-30T04:39:20;307.60;2304.00
16491;DHT22;8356;51.214;3.270;2024-01-30T04:41:46;307.70;2304.00
16491;DHT22;8356;51.214;3.270;2024-01-30T04:44:11;307.70;2304.00
16491;DHT22;8356;51.214;3.270;2024-01-30T04:46:37;307.70;2304.00
16491;DHT22;8356;51.214;3.270;2024-01-30T04:49:03;307.80;2304.00
16491;DHT22;8356;51.214;3.270;2024-01-30T04:51:29;307.70;2304.00
16491;DHT22;8356;51.214;3.270;2024-01-30T04:53:55;307.90;2304.00
16491;DHT22;8356;51.214;3.270;2024-01-30T04:56:21;307.90;2304.00
16491;DHT22;8356;51.214;3.270;2024-01-30T04:58:46;307.90;2304.00
16491;DHT22;8356;51.214;3.270;2024-01-30T05:01:16;307.90;2304.00
16491;DHT22;8356;51.214;3.270;2024-01-30T05:03:42;308.00;2304.00
16491;DHT22;8356;51.214;3.270;2024-01-30T05:06:07;308.00;2304.00
16491;DHT22;8356;51.214;3.270;2024-01-30T05:08:33;308.00;2304.00
16491;DHT22;8356;51.214;3.270;2024-01-30T05:11:01;308.10;2304.00
16491;DHT22;8356;51.214;3.270;2024-01-30T05:13:28;308.10;2304.00
16491;DHT22;8356;51.214;3.270;2024-01-30T05:15:53;308.10;2304.00
16491;DHT22;8356;51.214;3.270;2024-01-30T05:18:19;308.10;2304.00
16491;DHT22;8356;51.214;3.270;2024-01-30T05:20:44;332.80;2329.60
16491;DHT22;8356;51.214;3.270;2024-01-30T05:23:10;332.80;2329.60
16491;DHT22;8356;51.214;3.270;2024-01-30T05:25:36;332.80;2329.60
16491;DHT22;8356;51.214;3.270;2024-01-30T05:28:01;332.80;2329.60
16491;DHT22;8356;51.214;3.270;2024-01-30T05:30:27;332.90;2329.60
16491;DHT22;8356;51.214;3.270;2024-01-30T05:32:52;333.00;2329.60
16491;DHT22;8356;51.214;3.270;2024-01-30T05:35:18;333.00;2329.60
16491;DHT22;8356;51.214;3.270;2024-01-30T05:37:47;333.00;2329.60
16491;DHT22;8356;51.214;3.270;2024-01-30T05:40:13;333.00;2329.60
16491;DHT22;8356;51.214;3.270;2024-01-30T05:42:39;333.00;2329.60
16491;DHT22;8356;51.214;3.270;2024-01-30T05:45:05;333.00;2329.60
16491;DHT22;8356;51.214;3.270;2024-01-30T05:47:30;333.00;2329.60
16491;DHT22;8356;51.214;3.270;2024-01-30T05:49:56;333.00;2329.60
16491;DHT22;8356;51.214;3.270;2024-01-30T05:52:22;333.00;2329.60
16491;DHT22;8356;51.214;3.270;2024-01-30T05:54:47;333.10;2329.60
16491;DHT22;8356;51.214;3.270;2024-01-30T05:57:13;333.00;2329.60
16491;DHT22;8356;51.214;3.270;2024-01-30T05:59:39;333.10;2329.60
16491;DHT22;8356;51.214;3.270;2024-01-30T06:02:04;333.10;2329.60
16491;DHT22;8356;51.214;3.270;2024-01-30T06:04:30;333.10;2329.60
16491;DHT22;8356;51.214;3.270;2024-01-30T06:06:56;333.10;2329.60
16491;DHT22;8356;51.214;3.270;2024-01-30T06:09:21;333.10;2329.60
16491;DHT22;8356;51.214;3.270;2024-01-30T06:11:47;333.00;2329.60
16491;DHT22;8356;51.214;3.270;2024-01-30T06:14:12;333.10;2329.60
16491;DHT22;8356;51.214;3.270;2024-01-30T06:16:38;333.00;2329.60
16491;DHT22;8356;51.214;3.270;2024-01-30T06:19:04;333.00;2329.60
16491;DHT22;8356;51.214;3.270;2024-01-30T06:21:29;333.00;2329.60
16491;DHT22;8356;51.214;3.270;2024-01-30T06:23:56;333.00;2329.60
16491;DHT22;8356;51.214;3.270;2024-01-30T06:26:21;333.00;2329.60
16491;DHT22;8356;51.214;3.270;2024-01-30T06:28:47;333.00;2329.60
16491;DHT22;8356;51.214;3.270;2024-01-30T06:31:12;333.00;2329.60
16491;DHT22;8356;51.214;3.270;2024-01-30T06:33:38;333.00;2329.60
16491;DHT22;8356;51.214;3.270;2024-01-30T06:36:04;333.00;2329.60
16491;DHT22;8356;51.214;3.270;2024-01-30T06:38:29;333.00;2329.60
16491;DHT22;8356;51.214;3.270;2024-01-30T06:40:55;333.00;2329.60
16491;DHT22;8356;51.214;3.270;2024-01-30T06:43:22;333.00;2329.60
16491;DHT22;8356;51.214;3.270;2024-01-30T06:45:47;333.00;2329.60
16491;DHT22;8356;51.214;3.270;2024-01-30T06:48:13;333.00;2329.60
16491;DHT22;8356;51.214;3.270;2024-01-30T06:50:38;333.00;2329.60
16491;DHT22;8356;51.214;3.270;2024-01-30T06:53:04;333.00;2329.60
16491;DHT22;8356;51.214;3.270;2024-01-30T06:55:30;333.00;2329.60
16491;DHT22;8356;51.214;3.270;2024-01-30T06:57:55;333.00;2329.60
16491;DHT22;8356;51.214;3.270;2024-01-30T07:00:21;333.00;2329.60
16491;DHT22;8356;51.214;3.270;2024-01-30T07:02:47;333.00;2329.60
16491;DHT22;8356;51.214;3.270;2024-01-30T07:05:13;333.10;2329.60
16491;DHT22;8356;51.214;3.270;2024-01-30T07:07:39;333.00;2329.60
16491;DHT22;8356;51.214;3.270;2024-01-30T07:10:05;333.10;2329.60
16491;DHT22;8356;51.214;3.270;2024-01-30T07:12:32;333.10;2329.60
16491;DHT22;8356;51.214;3.270;2024-01-30T07:14:57;333.10;2329.60
16491;DHT22;8356;51.214;3.270;2024-01-30T07:17:25;333.10;2329.60
16491;DHT22;8356;51.214;3.270;2024-01-30T07:19:50;333.10;2329.60
16491;DHT22;8356;51.214;3.270;2024-01-30T07:22:16;333.10;2329.60
16491;DHT22;8356;51.214;3.270;2024-01-30T07:24:44;333.00;2329.60
16491;DHT22;8356;51.214;3.270;2024-01-30T07:27:12;333.00;2329.60
16491;DHT22;8356;51.214;3.270;2024-01-30T07:29:38;307.90;2304.00
16491;DHT22;8356;51.214;3.270;2024-01-30T07:32:04;333.10;2329.60
16491;DHT22;8356;51.214;3.270;2024-01-30T07:34:29;333.00;2329.60
16491;DHT22;8356;51.214;3.270;2024-01-30T07:36:55;333.00;2329.60
16491;DHT22;8356;51.214;3.270;2024-01-30T07:39:21;333.00;2329.60
16491;DHT22;8356;51.214;3.270;2024-01-30T07:41:47;333.00;2329.60
16491;DHT22;8356;51.214;3.270;2024-01-30T07:44:12;333.00;2329.60
16491;DHT22;8356;51.214;3.270;2024-01-30T07:46:38;333.00;2329.60
16491;DHT22;8356;51.214;3.270;2024-01-30T07:49:03;333.10;2329.60
16491;DHT22;8356;51.214;3.270;2024-01-30T07:51:29;333.10;2329.60
16491;DHT22;8356;51.214;3.270;2024-01-30T07:54:00;333.00;2329.60
16491;DHT22;8356;51.214;3.270;2024-01-30T07:56:25;333.10;2329.60
16491;DHT22;8356;51.214;3.270;2024-01-30T07:58:51;333.10;2329.60
16491;DHT22;8356;51.214;3.270;2024-01-30T08:01:17;333.10;2329.60
16491;DHT22;8356;51.214;3.270;2024-01-30T08:03:42;308.10;2304.00
16491;DHT22;8356;51.214;3.270;2024-01-30T08:06:09;333.10;2329.60
16491;DHT22;8356;51.214;3.270;2024-01-30T08:08:35;333.10;2329.60
16491;DHT22;8356;51.214;3.270;2024-01-30T08:11:00;333.10;2329.60
16491;DHT22;8356;51.214;3.270;2024-01-30T08:13:27;333.10;2329.60
16491;DHT22;8356;51.214;3.270;2024-01-30T08:15:52;333.10;2329.60
16491;DHT22;8356;51.214;3.270;2024-01-30T08:18:18;333.10;2329.60
16491;DHT22;8356;51.214;3.270;2024-01-30T08:20:44;333.10;2329.60
16491;DHT22;8356;51.214;3.270;2024-01-30T08:23:09;333.20;2329.60
16491;DHT22;8356;51.214;3.270;2024-01-30T08:25:36;333.10;2329.60
16491;DHT22;8356;51.214;3.270;2024-01-30T08:28:02;333.20;2329.60
16491;DHT22;8356;51.214;3.270;2024-01-30T08:30:27;333.20;2329.60
16491;DHT22;8356;51.214;3.270;2024-01-30T08:32:53;333.20;2329.60
16491;DHT22;8356;51.214;3.270;2024-01-30T08:35:19;333.20;2329.60
16491;DHT22;8356;51.214;3.270;2024-01-30T08:37:44;333.20;2329.60
16491;DHT22;8356;51.214;3.270;2024-01-30T08:40:10;333.20;2329.60
16491;DHT22;8356;51.214;3.270;2024-01-30T08:42:36;333.20;2329.60
16491;DHT22;8356;51.214;3.270;2024-01-30T08:45:01;333.20;2329.60
16491;DHT22;8356;51.214;3.270;2024-01-30T08:47:27;333.20;2329.60
16491;DHT22;8356;51.214;3.270;2024-01-30T08:49:53;333.20;2329.60
16491;DHT22;8356;51.214;3.270;2024-01-30T08:52:18;333.20;2329.60
16491;DHT22;8356;51.214;3.270;2024-01-30T08:54:44;333.20;2329.60
16491;DHT22;8356;51.214;3.270;2024-01-30T08:57:10;333.20;2329.60
16491;DHT22;8356;51.214;3.270;2024-01-30T08:59:35;333.20;2329.60
16491;DHT22;8356;51.214;3.270;2024-01-30T09:02:01;333.30;2329.60
16491;DHT22;8356;51.214;3.270;2024-01-30T09:04:27;333.30;2329.60
16491;DHT22;8356;51.214;3.270;2024-01-30T09:06:53;333.30;2329.60
16491;DHT22;8356;51.214;3.270;2024-01-30T09:09:19;333.20;2329.60
16491;DHT22;8356;51.214;3.270;2024-01-30T09:11:45;333.20;2329.60
16491;DHT22;8356;51.214;3.270;2024-01-30T09:14:10;333.00;2329.60
16491;DHT22;8356;51.214;3.270;2024-01-30T09:16:37;332.90;2329.60
16491;DHT22;8356;51.214;3.270;2024-01-30T09:19:03;332.90;2329.60
16491;DHT22;8356;51.214;3.270;2024-01-30T09:21:28;332.90;2329.60
16491;DHT22;8356;51.214;3.270;2024-01-30T09:23:54;332.80;2329.60
16491;DHT22;8356;51.214;3.270;2024-01-30T09:26:20;332.80;2329.60
16491;DHT22;8356;51.214;3.270;2024-01-30T09:28:46;332.80;2329.60
16491;DHT22;8356;51.214;3.270;2024-01-30T09:31:12;332.80;2329.60
16491;DHT22;8356;51.214;3.270;2024-01-30T09:33:38;332.80;2329.60
16491;DHT22;8356;51.214;3.270;2024-01-30T09:36:05;332.80;2329.60
16491;DHT22;8356;51.214;3.270;2024-01-30T09:38:31;332.80;2329.60
16491;DHT22;8356;51.214;3.270;2024-01-30T09:41:01;332.80;2329.60
16491;DHT22;8356;51.214;3.270;2024-01-30T09:43:33;332.80;2329.60
16491;DHT22;8356;51.214;3.270;2024-01-30T09:46:00;332.90;2329.60
16491;DHT22;8356;51.214;3.270;2024-01-30T09:48:29;332.80;2329.60
16491;DHT22;8356;51.214;3.270;2024-01-30T09:50:57;332.80;2329.60
16491;DHT22;8356;51.214;3.270;2024-01-30T09:53:23;332.90;2329.60
16491;DHT22;8356;51.214;3.270;2024-01-30T09:55:50;332.90;2329.60
16491;DHT22;8356;51.214;3.270;2024-01-30T09:58:16;332.90;2329.60
16491;DHT22;8356;51.214;3.270;2024-01-30T10:00:42;332.90;2329.60
16491;DHT22;8356;51.214;3.270;2024-01-30T10:03:08;332.90;2329.60
16491;DHT22;8356;51.214;3.270;2024-01-30T10:05:35;307.50;2304.00
16491;DHT22;8356;51.214;3.270;2024-01-30T10:08:06;332.80;2329.60
16491;DHT22;8356;51.214;3.270;2024-01-30T10:10:33;307.80;2304.00
16491;DHT22;8356;51.214;3.270;2024-01-30T10:12:59;332.80;2329.60
16491;DHT22;8356;51.214;3.270;2024-01-30T10:15:25;332.80;2329.60
16491;DHT22;8356;51.214;3.270;2024-01-30T10:17:53;332.80;2329.60
16491;DHT22;8356;51.214;3.270;2024-01-30T10:20:19;332.80;2329.60
16491;DHT22;8356;51.214;3.270;2024-01-30T10:22:45;332.80;2329.60
16491;DHT22;8356;51.214;3.270;2024-01-30T10:25:11;332.80;2329.60
16491;DHT22;8356;51.214;3.270;2024-01-30T10:27:39;332.80;2329.60
16491;DHT22;8356;51.214;3.270;2024-01-30T10:30:05;332.80;2329.60
16491;DHT22;8356;51.214;3.270;2024-01-30T10:32:31;308.10;2304.00
16491;DHT22;8356;51.214;3.270;2024-01-30T10:34:57;308.10;2304.00
16491;DHT22;8356;51.214;3.270;2024-01-30T10:37:25;308.10;2304.00
16491;DHT22;8356;51.214;3.270;2024-01-30T10:39:53;308.10;2304.00
16491;DHT22;8356;51.214;3.270;2024-01-30T10:42:26;308.10;2304.00
16491;DHT22;8356;51.214;3.270;2024-01-30T10:45:08;308.10;2304.00
16491;DHT22;8356;51.214;3.270;2024-01-30T10:47:37;308.00;2304.00
16491;DHT22;8356;51.214;3.270;2024-01-30T10:50:03;307.90;2304.00
16491;DHT22;8356;51.214;3.270;2024-01-30T10:52:29;307.90;2304.00
16491;DHT22;8356;51.214;3.270;2024-01-30T10:54:55;307.90;2304.00
16491;DHT22;8356;51.214;3.270;2024-01-30T10:57:25;307.90;2304.00
16491;DHT22;8356;51.214;3.270;2024-01-30T10:59:55;307.90;2304.00
16491;DHT22;8356;51.214;3.270;2024-01-30T11:02:22;307.90;2304.00
16491;DHT22;8356;51.214;3.270;2024-01-30T11:04:49;307.90;2304.00
16491;DHT22;8356;51.214;3.270;2024-01-30T11:07:18;307.90;2304.00
16491;DHT22;8356;51.214;3.270;2024-01-30T11:09:53;307.90;2304.00
16491;DHT22;8356;51.214;3.270;2024-01-30T11:12:23;308.00;2304.00
16491;DHT22;8356;51.214;3.270;2024-01-30T11:14:50;308.00;2304.00
16491;DHT22;8356;51.214;3.270;2024-01-30T11:17:15;333.00;2329.60
16491;DHT22;8356;51.214;3.270;2024-01-30T11:19:41;308.00;2304.00
16491;DHT22;8356;51.214;3.270;2024-01-30T11:22:07;308.00;2304.00
16491;DHT22;8356;51.214;3.270;2024-01-30T11:24:40;308.00;2304.00
16491;DHT22;8356;51.214;3.270;2024-01-30T11:27:09;308.00;2304.00
16491;DHT22;8356;51.214;3.270;2024-01-30T11:29:40;308.00;2304.00
16491;DHT22;8356;51.214;3.270;2024-01-30T11:32:05;308.00;2304.00
16491;DHT22;8356;51.214;3.270;2024-01-30T11:34:32;307.90;2304.00
16491;DHT22;8356;51.214;3.270;2024-01-30T11:37:02;307.90;2304.00
16491;DHT22;8356;51.214;3.270;2024-01-30T11:39:32;307.90;2304.00
16491;DHT22;8356;51.214;3.270;2024-01-30T11:41:58;307.90;2304.00
16491;DHT22;8356;51.214;3.270;2024-01-30T11:44:24;307.90;2304.00
16491;DHT22;8356;51.214;3.270;2024-01-30T11:46:51;307.90;2304.00
16491;DHT22;8356;51.214;3.270;2024-01-30T11:49:17;307.90;2304.00
16491;DHT22;8356;51.214;3.270;2024-01-30T11:51:45;307.90;2304.00
16491;DHT22;8356;51.214;3.270;2024-01-30T11:54:10;307.90;2304.00
16491;DHT22;8356;51.214;3.270;2024-01-30T11:56:37;307.90;2304.00
16491;DHT22;8356;51.214;3.270;2024-01-30T11:59:03;307.90;2304.00
16491;DHT22;8356;51.214;3.270;2024-01-30T12:01:29;333.20;2329.60
16491;DHT22;8356;51.214;3.270;2024-01-30T12:03:55;307.90;2304.00
16491;DHT22;8356;51.214;3.270;2024-01-30T12:06:22;307.70;2304.00
16491;DHT22;8356;51.214;3.270;2024-01-30T12:09:02;307.50;2304.00
16491;DHT22;8356;51.214;3.270;2024-01-30T12:11:45;307.80;2304.00
16491;DHT22;8356;51.214;3.270;2024-01-30T12:14:11;307.80;2304.00
16491;DHT22;8356;51.214;3.270;2024-01-30T12:16:37;307.90;2304.00
16491;DHT22;8356;51.214;3.270;2024-01-30T12:19:03;307.80;2304.00
16491;DHT22;8356;51.214;3.270;2024-01-30T12:21:29;307.80;2304.00
16491;DHT22;8356;51.214;3.270;2024-01-30T12:23:56;307.80;2304.00
16491;DHT22;8356;51.214;3.270;2024-01-30T12:26:21;307.70;2304.00
16491;DHT22;8356;51.214;3.270;2024-01-30T12:28:50;307.60;2304.00
16491;DHT22;8356;51.214;3.270;2024-01-30T12:31:16;307.60;2304.00
16491;DHT22;8356;51.214;3.270;2024-01-30T12:33:41;307.70;2304.00
16491;DHT22;8356;51.214;3.270;2024-01-30T12:36:07;307.70;2304.00
16491;DHT22;8356;51.214;3.270;2024-01-30T12:38:33;307.70;2304.00
16491;DHT22;8356;51.214;3.270;2024-01-30T12:40:59;307.70;2304.00
16491;DHT22;8356;51.214;3.270;2024-01-30T12:43:25;307.60;2304.00
16491;DHT22;8356;51.214;3.270;2024-01-30T12:45:52;307.70;2304.00
16491;DHT22;8356;51.214;3.270;2024-01-30T12:48:18;307.70;2304.00
16491;DHT22;8356;51.214;3.270;2024-01-30T12:50:44;307.90;2304.00
16491;DHT22;8356;51.214;3.270;2024-01-30T12:53:09;307.80;2304.00
16491;DHT22;8356;51.214;3.270;2024-01-30T12:55:35;307.80;2304.00
16491;DHT22;8356;51.214;3.270;2024-01-30T12:58:01;307.80;2304.00
16491;DHT22;8356;51.214;3.270;2024-01-30T13:00:27;307.80;2304.00
16491;DHT22;8356;51.214;3.270;2024-01-30T13:02:53;307.80;2304.00
16491;DHT22;8356;51.214;3.270;2024-01-30T13:05:18;307.60;2304.00
16491;DHT22;8356;51.214;3.270;2024-01-30T13:07:44;307.60;2304.00
16491;DHT22;8356;51.214;3.270;2024-01-30T13:10:10;307.50;2304.00
16491;DHT22;8356;51.214;3.270;2024-01-30T13:12:36;307.40;2304.00
16491;DHT22;8356;51.214;3.270;2024-01-30T13:15:02;307.30;2304.00
16491;DHT22;8356;51.214;3.270;2024-01-30T13:17:30;307.30;2304.00
16491;DHT22;8356;51.214;3.270;2024-01-30T13:19:55;307.40;2304.00
16491;DHT22;8356;51.214;3.270;2024-01-30T13:22:21;307.40;2304.00
16491;DHT22;8356;51.214;3.270;2024-01-30T13:24:47;307.40;2304.00
16491;DHT22;8356;51.214;3.270;2024-01-30T13:27:13;307.30;2304.00
16491;DHT22;8356;51.214;3.270;2024-01-30T13:29:39;307.40;2304.00
16491;DHT22;8356;51.214;3.270;2024-01-30T13:32:05;307.40;2304.00
16491;DHT22;8356;51.214;3.270;2024-01-30T13:34:31;307.40;2304.00
16491;DHT22;8356;51.214;3.270;2024-01-30T13:36:56;307.40;2304.00
16491;DHT22;8356;51.214;3.270;2024-01-30T13:39:22;307.50;2304.00
16491;DHT22;8356;51.214;3.270;2024-01-30T13:41:48;307.40;2304.00
16491;DHT22;8356;51.214;3.270;2024-01-30T13:44:14;307.40;2304.00
16491;DHT22;8356;51.214;3.270;2024-01-30T13:46:41;307.40;2304.00
16491;DHT22;8356;51.214;3.270;2024-01-30T13:49:07;307.40;2304.00
16491;DHT22;8356;51.214;3.270;2024-01-30T13:51:33;307.20;2304.00
16491;DHT22;8356;51.214;3.270;2024-01-30T13:53:59;307.30;2304.00
16491;DHT22;8356;51.214;3.270;2024-01-30T13:56:24;307.20;2304.00
16491;DHT22;8356;51.214;3.270;2024-01-30T13:58:52;307.20;2304.00
16491;DHT22;8356;51.214;3.270;2024-01-30T14:01:18;307.20;2304.00
16491;DHT22;8356;51.214;3.270;2024-01-30T14:03:43;307.20;2304.00
16491;DHT22;8356;51.214;3.270;2024-01-30T14:06:09;282.50;2278.40
16491;DHT22;8356;51.214;3.270;2024-01-30T14:08:35;282.50;2278.40
16491;DHT22;8356;51.214;3.270;2024-01-30T14:11:01;282.40;2278.40
16491;DHT22;8356;51.214;3.270;2024-01-30T14:13:26;282.40;2278.40
16491;DHT22;8356;51.214;3.270;2024-01-30T14:15:52;282.40;2278.40
16491;DHT22;8356;51.214;3.270;2024-01-30T14:18:18;282.30;2278.40
16491;DHT22;8356;51.214;3.270;2024-01-30T14:20:44;282.30;2278.40
16491;DHT22;8356;51.214;3.270;2024-01-30T14:23:10;282.30;2278.40
16491;DHT22;8356;51.214;3.270;2024-01-30T14:25:35;282.30;2278.40
16491;DHT22;8356;51.214;3.270;2024-01-30T14:28:01;282.30;2278.40
16491;DHT22;8356;51.214;3.270;2024-01-30T14:30:27;282.30;2278.40
16491;DHT22;8356;51.214;3.270;2024-01-30T14:32:52;282.30;2278.40
16491;DHT22;8356;51.214;3.270;2024-01-30T14:35:18;282.30;2278.40
16491;DHT22;8356;51.214;3.270;2024-01-30T14:37:45;282.30;2278.40
16491;DHT22;8356;51.214;3.270;2024-01-30T14:40:11;282.30;2278.40
16491;DHT22;8356;51.214;3.270;2024-01-30T14:42:37;282.20;2278.40
16491;DHT22;8356;51.214;3.270;2024-01-30T14:45:03;282.20;2278.40
16491;DHT22;8356;51.214;3.270;2024-01-30T14:47:29;282.30;2278.40
16491;DHT22;8356;51.214;3.270;2024-01-30T14:49:56;282.20;2278.40
16491;DHT22;8356;51.214;3.270;2024-01-30T14:52:22;282.30;2278.40
16491;DHT22;8356;51.214;3.270;2024-01-30T14:54:48;282.30;2278.40
16491;DHT22;8356;51.214;3.270;2024-01-30T14:57:13;282.30;2278.40